Time;durP1;ratioP1;P1;durP2;ratioP2;P2;SDS_P1;SDS_P2;PMS_P1;PMS_P2;Temp;Humidity;BMP_temperature;BMP_pressure;BME280_temperature;BME280_humidity;BME280_pressure;Samples;Min_cycle;Max_cycle;Signal;HPM_P1;HPM_P2
2021/07/08 00:02:08;;;;;;;3.30;1.90;;;;;;;21.51;35.61;101468.38;3595692;39;20069;-68
2021/07/08 00:04:39;;;;;;;2.97;1.98;;;;;;;21.50;35.71;101468.56;3598768;39;20142;-68
2021/07/08 00:07:09;;;;;;;4.00;2.10;;;;;;;21.45;35.19;101472.78;3597063;39;20116;-68
2021/07/08 00:09:37;;;;;;;4.75;2.03;;;;;;;21.42;35.70;101475.94;3598525;39;20058;-68
2021/07/08 00:12:07;;;;;;;3.55;1.90;;;;;;;21.40;35.38;101480.00;3598909;39;20040;-68
2021/07/08 00:14:37;;;;;;;3.90;2.03;;;;;;;21.38;35.66;101477.41;3594915;39;20089;-68
2021/07/08 00:17:07;;;;;;;3.85;1.92;;;;;;;21.33;35.44;101477.06;3600214;39;20052;-68
2021/07/08 00:19:35;;;;;;;3.15;1.83;;;;;;;21.32;35.36;101471.72;3598976;39;20437;-68
2021/07/08 00:22:04;;;;;;;3.15;1.88;;;;;;;21.29;35.56;101467.38;3601001;39;20043;-68
2021/07/08 00:24:33;;;;;;;3.67;1.92;;;;;;;21.27;36.16;101474.19;3589907;40;20406;-68
2021/07/08 00:27:01;;;;;;;4.95;1.98;;;;;;;21.24;35.86;101472.66;3596708;39;20056;-68
2021/07/08 00:29:29;;;;;;;3.08;1.65;;;;;;;21.21;35.97;101467.47;3591792;40;20055;-68
2021/07/08 00:31:59;;;;;;;3.22;1.95;;;;;;;21.22;35.96;101469.19;3600133;39;20048;-68
2021/07/08 00:34:27;;;;;;;4.30;2.10;;;;;;;21.18;36.47;101470.63;3600163;39;20070;-68
2021/07/08 00:36:55;;;;;;;3.40;1.98;;;;;;;21.16;36.27;101471.88;3599769;39;20044;-68
2021/07/08 00:39:23;;;;;;;4.55;2.03;;;;;;;21.13;36.69;101473.09;3599361;39;20052;-68
2021/07/08 00:41:51;;;;;;;2.70;1.92;;;;;;;21.11;36.74;101479.91;3596393;39;20047;-69
2021/07/08 00:44:19;;;;;;;3.50;1.77;;;;;;;21.08;36.02;101475.56;3599114;39;20052;-68
2021/07/08 00:46:47;;;;;;;2.90;1.70;;;;;;;21.06;36.13;101481.34;3599843;39;20427;-68
2021/07/08 00:49:17;;;;;;;3.35;1.85;;;;;;;21.08;36.88;101485.84;3590359;39;20044;-68
2021/07/08 00:51:45;;;;;;;2.50;1.75;;;;;;;21.04;36.27;101483.44;3598761;39;20402;-68
2021/07/08 00:54:13;;;;;;;3.78;1.88;;;;;;;21.01;36.55;101474.56;3595109;39;20136;-68
2021/07/08 00:56:41;;;;;;;3.35;2.05;;;;;;;20.99;36.27;101483.13;3598725;39;20577;-68
2021/07/08 00:59:11;;;;;;;2.58;1.67;;;;;;;20.98;36.62;101478.63;3599186;39;20395;-68
2021/07/08 01:01:41;;;;;;;4.25;1.98;;;;;;;20.98;36.86;101477.75;3600394;39;20052;-69
2021/07/08 01:04:11;;;;;;;3.53;2.00;;;;;;;20.95;36.99;101481.75;3600201;39;20055;-68
2021/07/08 01:06:53;;;;;;;4.35;2.15;;;;;;;20.92;36.46;101475.69;3599513;39;20058;-69
2021/07/08 01:09:22;;;;;;;3.03;1.85;;;;;;;20.89;36.65;101478.88;3599543;39;20048;-69
2021/07/08 01:11:50;;;;;;;3.25;1.70;;;;;;;20.88;36.95;101471.53;3589996;40;20384;-69
2021/07/08 01:14:18;;;;;;;2.72;1.73;;;;;;;20.86;37.04;101468.94;3599027;39;20056;-68
2021/07/08 01:16:48;;;;;;;4.00;1.98;;;;;;;20.87;37.27;101478.16;3595837;39;20089;-68
2021/07/08 01:19:16;;;;;;;3.65;2.00;;;;;;;20.86;36.71;101473.63;3597884;39;20153;-68
2021/07/08 01:21:46;;;;;;;2.88;1.70;;;;;;;20.85;36.81;101475.53;3598504;39;20044;-69
2021/07/08 01:24:14;;;;;;;3.40;1.67;;;;;;;20.83;37.40;101479.56;3595237;39;20042;-68
2021/07/08 01:26:42;;;;;;;3.88;1.80;;;;;;;20.81;37.03;101474.19;3595157;39;20063;-68
2021/07/08 01:29:11;;;;;;;4.25;1.88;;;;;;;20.79;37.55;101472.63;3600407;39;20658;-69
2021/07/08 01:31:39;;;;;;;3.72;2.00;;;;;;;20.77;37.00;101472.81;3595446;39;20047;-69
2021/07/08 01:34:07;;;;;;;3.13;1.83;;;;;;;20.75;37.53;101472.13;3597961;39;20056;-68
2021/07/08 01:36:35;;;;;;;3.28;1.65;;;;;;;20.74;37.45;101464.00;3597694;39;20084;-68
2021/07/08 01:39:06;;;;;;;3.08;1.88;;;;;;;20.73;37.36;101471.47;3596091;39;20084;-68
2021/07/08 01:41:34;;;;;;;4.70;2.03;;;;;;;20.68;37.48;101462.81;3588958;40;20043;-69
2021/07/08 01:44:02;;;;;;;3.13;2.00;;;;;;;20.65;37.69;101452.06;3588703;39;20044;-68
2021/07/08 01:46:30;;;;;;;3.17;1.92;;;;;;;20.62;37.19;101452.44;3594060;39;20323;-69
2021/07/08 01:49:01;;;;;;;3.83;1.90;;;;;;;20.56;37.32;101459.59;3592363;39;20048;-69
2021/07/08 01:51:34;;;;;;;3.30;2.00;;;;;;;20.55;37.74;101457.00;3595242;39;20104;-68
2021/07/08 01:54:08;;;;;;;3.45;2.05;;;;;;;20.51;37.57;101463.94;3596826;39;20394;-68
2021/07/08 01:56:38;;;;;;;4.65;2.13;;;;;;;20.48;37.26;101469.91;3592908;39;20534;-68
2021/07/08 01:59:06;;;;;;;2.60;1.65;;;;;;;20.45;37.80;101468.34;3587815;39;20381;-69
2021/07/08 02:01:35;;;;;;;3.72;2.00;;;;;;;20.42;37.28;101460.34;3595742;39;20040;-69
2021/07/08 02:04:03;;;;;;;3.67;1.98;;;;;;;20.42;37.63;101459.53;3588709;40;20574;-68
2021/07/08 02:06:31;;;;;;;4.00;2.00;;;;;;;20.40;37.87;101464.38;3595897;39;20434;-68
2021/07/08 02:08:59;;;;;;;4.00;1.73;;;;;;;20.38;38.01;101460.91;3597580;39;20097;-68
2021/07/08 02:11:29;;;;;;;3.33;1.80;;;;;;;20.37;38.02;101464.75;3595535;39;20130;-69
2021/07/08 02:13:57;;;;;;;2.78;1.80;;;;;;;20.33;38.03;101464.25;3589931;40;20064;-69
2021/07/08 02:16:25;;;;;;;3.80;1.83;;;;;;;20.32;38.11;101456.97;3584456;39;20071;-68
2021/07/08 02:18:54;;;;;;;3.45;2.00;;;;;;;20.30;37.61;101462.69;3596244;39;20090;-68
2021/07/08 02:21:22;;;;;;;3.58;2.00;;;;;;;20.27;38.34;101462.19;3587089;40;20043;-69
2021/07/08 02:23:50;;;;;;;4.63;2.00;;;;;;;20.24;38.17;101457.00;3595258;39;20120;-69
2021/07/08 02:26:18;;;;;;;5.70;1.80;;;;;;;20.21;38.13;101460.13;3592213;39;20483;-68
2021/07/08 02:28:48;;;;;;;3.50;1.85;;;;;;;20.20;38.37;101464.78;3594311;39;20438;-69
2021/07/08 02:31:17;;;;;;;3.63;1.90;;;;;;;20.15;38.46;101455.28;3584310;39;20047;-68
2021/07/08 02:33:46;;;;;;;3.75;1.92;;;;;;;20.12;38.03;101467.59;3595731;39;20083;-68
2021/07/08 02:36:14;;;;;;;3.40;1.95;;;;;;;20.09;38.09;101465.19;3595167;39;20047;-68
2021/07/08 02:38:42;;;;;;;3.03;1.77;;;;;;;20.07;38.49;101470.06;3602039;39;20105;-68
2021/07/08 02:41:10;;;;;;;3.08;1.98;;;;;;;20.06;38.07;101467.47;3599296;39;20084;-68
2021/07/08 02:43:38;;;;;;;2.67;1.67;;;;;;;20.04;38.58;101467.66;3596477;39;20327;-68
2021/07/08 02:46:07;;;;;;;4.13;2.00;;;;;;;20.03;38.23;101471.47;3595102;39;20050;-69
2021/07/08 02:48:36;;;;;;;4.95;2.10;;;;;;;20.00;38.38;101468.19;3598469;39;20048;-69
2021/07/08 02:51:04;;;;;;;3.20;2.00;;;;;;;19.98;38.53;101467.50;3596303;39;20476;-69
2021/07/08 02:53:32;;;;;;;4.07;2.05;;;;;;;19.98;38.72;101473.06;3595796;39;20052;-68
2021/07/08 02:56:00;;;;;;;4.07;2.22;;;;;;;19.94;38.54;101466.97;3584479;40;20495;-69
2021/07/08 02:58:29;;;;;;;2.95;2.03;;;;;;;19.91;38.25;101464.59;3596157;39;20048;-68
2021/07/08 03:00:57;;;;;;;3.75;1.98;;;;;;;19.89;38.57;101469.44;3596372;39;20069;-68
2021/07/08 03:03:27;;;;;;;4.05;2.28;;;;;;;19.88;38.59;101463.03;3598988;39;20097;-68
2021/07/08 03:05:55;;;;;;;3.95;1.83;;;;;;;19.85;38.55;101462.50;3595362;39;20047;-69
2021/07/08 03:08:24;;;;;;;4.22;1.92;;;;;;;19.82;38.23;101458.19;3595839;39;20048;-68
2021/07/08 03:10:52;;;;;;;5.47;2.22;;;;;;;19.81;38.91;101470.34;3594832;39;20048;-68
2021/07/08 03:13:20;;;;;;;2.92;2.10;;;;;;;19.79;38.31;101477.97;3598796;39;20060;-68
2021/07/08 03:15:48;;;;;;;3.17;2.10;;;;;;;19.78;38.80;101476.22;3588162;39;20036;-68
2021/07/08 03:18:16;;;;;;;4.20;2.33;;;;;;;19.77;38.80;101477.28;3598053;39;20145;-68
2021/07/08 03:20:48;;;;;;;3.95;2.13;;;;;;;19.78;38.24;101486.47;3589093;39;20048;-68
2021/07/08 03:23:16;;;;;;;4.18;2.30;;;;;;;19.76;38.89;101485.81;3584934;39;20052;-68
2021/07/08 03:25:44;;;;;;;4.63;2.17;;;;;;;19.76;38.33;101492.19;3593116;39;20427;-69
2021/07/08 03:28:12;;;;;;;5.18;2.17;;;;;;;19.76;38.71;101494.13;3597119;39;20087;-68
2021/07/08 03:30:41;;;;;;;5.15;2.20;;;;;;;19.74;38.04;101485.09;3597170;39;20094;-68
2021/07/08 03:33:09;;;;;;;4.40;1.92;;;;;;;19.73;38.66;101483.38;3586293;39;20426;-68
2021/07/08 03:35:38;;;;;;;4.05;2.22;;;;;;;19.71;38.63;101478.00;3598009;39;20046;-69
2021/07/08 03:38:07;;;;;;;3.05;1.80;;;;;;;19.73;38.78;101477.81;3600820;39;20079;-69
2021/07/08 03:40:37;;;;;;;3.85;2.40;;;;;;;19.70;38.42;101480.94;3601009;39;20044;-68
2021/07/08 03:43:05;;;;;;;3.47;2.45;;;;;;;19.68;38.52;101486.66;3600297;39;20124;-69
2021/07/08 03:45:33;;;;;;;3.35;2.08;;;;;;;19.66;38.87;101485.13;3595257;39;20041;-69
2021/07/08 03:48:18;;;;;;;5.00;1.95;;;;;;;19.61;39.03;101491.19;3600937;39;20126;-68
2021/07/08 03:50:47;;;;;;;4.45;2.35;;;;;;;19.62;38.76;101497.63;3599530;39;20044;-69
2021/07/08 03:53:16;;;;;;;3.88;2.10;;;;;;;19.62;38.89;101501.25;3598992;39;20051;-68
2021/07/08 03:55:44;;;;;;;3.42;2.10;;;;;;;19.60;38.82;101499.69;3599015;39;20048;-69
2021/07/08 03:58:12;;;;;;;3.78;2.05;;;;;;;19.58;38.90;101491.56;3597517;39;20051;-69
2021/07/08 04:00:41;;;;;;;2.88;1.95;;;;;;;19.59;39.02;101498.00;3599792;39;20052;-69
2021/07/08 04:03:12;;;;;;;3.80;2.30;;;;;;;19.60;38.77;101497.78;3605661;39;20364;-69
2021/07/08 04:05:44;;;;;;;2.95;1.77;;;;;;;19.58;38.92;101490.69;3603943;39;20054;-69
2021/07/08 04:08:13;;;;;;;3.30;2.10;;;;;;;19.56;39.22;101494.50;3598036;39;20113;-68
2021/07/08 04:10:45;;;;;;;3.83;1.98;;;;;;;19.57;39.42;101500.94;3603182;39;20046;-69
2021/07/08 04:13:14;;;;;;;3.45;1.90;;;;;;;19.55;38.96;101511.34;3592060;39;20123;-68
2021/07/08 04:15:45;;;;;;;3.53;2.10;;;;;;;19.54;38.90;101506.81;3602562;39;20032;-68
2021/07/08 04:18:13;;;;;;;3.25;2.05;;;;;;;19.51;39.59;101504.41;3592464;40;20044;-68
2021/07/08 04:20:43;;;;;;;4.43;2.20;;;;;;;19.50;39.03;101520.19;3595726;39;20323;-68
2021/07/08 04:23:13;;;;;;;4.38;1.90;;;;;;;19.49;38.88;101521.19;3592662;39;20395;-70
2021/07/08 04:25:42;;;;;;;4.50;2.30;;;;;;;19.47;39.46;101526.06;3598890;39;20396;-71
2021/07/08 04:28:11;;;;;;;3.50;2.10;;;;;;;19.46;39.46;101520.66;3595792;39;20052;-70
2021/07/08 04:30:41;;;;;;;3.00;2.13;;;;;;;19.45;39.18;101522.56;3596854;39;20056;-71
2021/07/08 04:33:10;;;;;;;3.38;1.80;;;;;;;19.44;39.24;101519.97;3590937;39;20067;-70
2021/07/08 04:35:39;;;;;;;3.20;2.00;;;;;;;19.44;39.86;101519.97;3588301;39;20069;-70
2021/07/08 04:38:09;;;;;;;3.85;1.95;;;;;;;19.43;39.34;101516.31;3604553;39;20063;-71
2021/07/08 04:40:38;;;;;;;3.95;2.22;;;;;;;19.44;39.42;101522.75;3606626;39;20043;-71
2021/07/08 04:43:09;;;;;;;3.53;2.10;;;;;;;19.46;39.29;101520.66;3601609;39;20399;-71
2021/07/08 04:45:37;;;;;;;3.83;2.20;;;;;;;19.44;39.78;101534.72;3608659;39;20124;-73
2021/07/08 04:48:07;;;;;;;3.88;2.38;;;;;;;19.46;39.50;101526.22;3607436;39;20031;-72
2021/07/08 04:50:36;;;;;;;3.75;2.50;;;;;;;19.44;40.05;101520.84;3604036;39;20047;-71
2021/07/08 04:53:04;;;;;;;4.53;2.10;;;;;;;19.45;39.97;101510.59;3606119;39;20055;-70
2021/07/08 04:55:32;;;;;;;3.55;2.28;;;;;;;19.45;39.41;101513.38;3608042;39;20047;-71
2021/07/08 04:58:01;;;;;;;3.22;2.30;;;;;;;19.44;39.77;101517.19;3601601;39;20035;-72
2021/07/08 05:00:31;;;;;;;5.07;2.08;;;;;;;19.46;39.91;101517.91;3603150;39;20403;-71
2021/07/08 05:02:59;;;;;;;4.05;2.30;;;;;;;19.43;40.05;101523.81;3600045;39;20051;-71
2021/07/08 05:05:27;;;;;;;4.15;2.20;;;;;;;19.44;39.84;101514.41;3600294;39;20040;-71
2021/07/08 05:07:55;;;;;;;4.43;2.38;;;;;;;19.45;39.93;101513.38;3599708;39;20071;-72
2021/07/08 05:10:23;;;;;;;4.13;2.20;;;;;;;19.46;39.97;101507.66;3599424;39;20036;-72
2021/07/08 05:12:51;;;;;;;3.75;2.30;;;;;;;19.48;39.95;101507.50;3604159;39;20052;-68
2021/07/08 05:15:20;;;;;;;3.55;2.15;;;;;;;19.48;39.80;101502.81;3610241;39;20238;-68
2021/07/08 05:17:51;;;;;;;5.97;2.60;;;;;;;19.51;39.79;101507.19;3581141;40;20041;-69
2021/07/08 05:20:24;;;;;;;5.93;2.50;;;;;;;19.48;39.91;101516.69;3598439;39;20044;-69
2021/07/08 05:22:58;;;;;;;3.53;2.30;;;;;;;19.48;39.96;101513.03;3610725;39;20043;-74
2021/07/08 05:25:27;;;;;;;4.03;2.17;;;;;;;19.49;39.84;101518.44;3610130;39;20051;-69
2021/07/08 05:27:55;;;;;;;4.20;2.38;;;;;;;19.50;39.59;101510.97;3601301;39;20088;-72
2021/07/08 05:30:24;;;;;;;3.80;2.35;;;;;;;19.50;39.76;101513.75;3610082;39;20048;-72
2021/07/08 05:32:54;;;;;;;3.22;2.17;;;;;;;19.52;39.78;101517.22;3600780;40;20040;-71
2021/07/08 05:35:22;;;;;;;4.70;2.75;;;;;;;19.51;40.27;101515.50;3589842;40;20044;-72
2021/07/08 05:37:50;;;;;;;5.53;2.53;;;;;;;19.51;40.35;101513.56;3590565;40;20045;-69
2021/07/08 05:40:19;;;;;;;4.45;2.45;;;;;;;19.51;39.92;101508.03;3589867;40;20044;-69
2021/07/08 05:42:47;;;;;;;4.82;2.50;;;;;;;19.53;40.37;101497.63;3589792;40;20059;-72
2021/07/08 05:45:16;;;;;;;3.70;2.40;;;;;;;19.52;40.44;101487.56;3589746;40;20408;-70
2021/07/08 05:47:45;;;;;;;4.20;2.40;;;;;;;19.53;40.19;101505.09;3590620;40;20037;-69
2021/07/08 05:50:16;;;;;;;4.88;2.60;;;;;;;19.56;40.17;101515.84;3589881;40;20380;-73
2021/07/08 05:52:44;;;;;;;3.83;2.38;;;;;;;19.56;40.30;101522.25;3589735;40;20037;-69
2021/07/08 05:55:14;;;;;;;4.05;2.13;;;;;;;19.59;40.49;101534.06;3589916;40;20067;-69
2021/07/08 05:57:47;;;;;;;4.15;2.45;;;;;;;19.61;40.38;101537.50;3589929;40;20025;-74
2021/07/08 06:00:18;;;;;;;3.88;2.10;;;;;;;19.64;40.05;101535.25;3599060;39;20048;-71
2021/07/08 06:02:46;;;;;;;5.03;2.33;;;;;;;19.66;40.43;101533.19;3597101;39;20142;-69
2021/07/08 06:05:16;;;;;;;4.53;2.35;;;;;;;19.71;40.35;101530.72;3589443;39;20047;-70
2021/07/08 06:07:45;;;;;;;4.15;2.47;;;;;;;19.71;39.91;101533.50;3597561;39;20048;-69
2021/07/08 06:10:14;;;;;;;3.63;2.22;;;;;;;19.73;40.03;101534.22;3599196;39;20056;-69
2021/07/08 06:12:43;;;;;;;3.50;2.15;;;;;;;19.76;40.23;101544.94;3600361;39;20059;-69
2021/07/08 06:15:11;;;;;;;4.88;2.08;;;;;;;19.79;40.60;101539.03;3598556;39;20059;-71
2021/07/08 06:17:39;;;;;;;5.18;2.40;;;;;;;19.81;40.05;101539.75;3589830;39;20338;-69
2021/07/08 06:20:09;;;;;;;3.63;2.10;;;;;;;19.84;40.41;101550.47;3599439;39;20561;-70
2021/07/08 06:22:39;;;;;;;4.15;2.30;;;;;;;19.89;40.15;101555.53;3598849;39;20395;-72
2021/07/08 06:25:08;;;;;;;4.00;2.17;;;;;;;19.89;40.50;101553.59;3593999;39;20082;-68
2021/07/08 06:27:36;;;;;;;3.70;2.30;;;;;;;19.92;40.44;101561.56;3597712;39;20051;-69
2021/07/08 06:30:05;;;;;;;3.95;2.55;;;;;;;19.95;40.35;101552.91;3596762;39;20036;-70
2021/07/08 06:32:33;;;;;;;4.63;2.33;;;;;;;19.98;40.56;101560.00;3597312;39;20052;-69
2021/07/08 06:35:03;;;;;;;4.78;2.60;;;;;;;20.03;40.43;101557.56;3592501;39;20522;-70
2021/07/08 06:37:34;;;;;;;;;;;;;;;19.77;40.96;101565.25;3599117;39;20052;-70
2021/07/08 06:40:04;;;;;;;4.20;2.92;;;;;;;20.08;40.35;101557.03;3601739;39;19969;-72
2021/07/08 06:42:34;;;;;;;4.32;2.78;;;;;;;20.14;40.45;101557.19;3599854;39;20056;-70
2021/07/08 06:45:03;;;;;;;4.60;2.78;;;;;;;20.19;40.94;101557.50;3602409;39;20315;-69
2021/07/08 06:47:38;;;;;;;6.05;3.20;;;;;;;20.24;40.56;101557.88;3607785;39;20063;-73
2021/07/08 06:50:07;;;;;;;5.82;2.88;;;;;;;20.32;40.79;101554.22;3603600;39;20059;-70
2021/07/08 06:52:36;;;;;;;4.18;2.90;;;;;;;20.38;41.01;101569.28;3602912;39;20044;-71
2021/07/08 06:55:07;;;;;;;8.75;3.08;;;;;;;20.46;40.89;101572.91;3602787;39;20051;-70
2021/07/08 06:57:35;;;;;;;6.03;3.00;;;;;;;20.52;40.69;101568.53;3592421;39;20061;-70
2021/07/08 07:00:04;;;;;;;5.85;3.40;;;;;;;20.59;40.82;101563.97;3590095;39;20032;-69
2021/07/08 07:02:34;;;;;;;6.13;3.30;;;;;;;20.66;40.64;101570.56;3598726;39;20028;-71
2021/07/08 07:05:03;;;;;;;4.47;2.88;;;;;;;20.75;40.82;101565.84;3609298;39;20028;-73
2021/07/08 07:07:31;;;;;;;4.97;2.80;;;;;;;20.83;40.77;101574.13;3605175;39;20109;-69
2021/07/08 07:09:59;;;;;;;5.10;2.78;;;;;;;20.91;40.98;101582.44;3598999;39;20110;-70
2021/07/08 07:12:29;;;;;;;4.65;2.65;;;;;;;21.04;40.74;101579.94;3600260;40;20060;-69
2021/07/08 07:14:57;;;;;;;5.35;2.83;;;;;;;21.08;40.39;101579.34;3597737;39;20399;-69
2021/07/08 07:17:33;;;;;;;4.60;2.72;;;;;;;21.14;40.40;101583.34;3598025;39;20037;-70
2021/07/08 07:20:01;;;;;;;5.00;2.80;;;;;;;21.21;40.46;101583.47;3606073;39;20043;-72
2021/07/08 07:22:29;;;;;;;4.03;2.75;;;;;;;21.30;40.11;101590.69;3600020;39;20070;-71
2021/07/08 07:25:00;;;;;;;6.97;2.90;;;;;;;21.37;39.87;101595.34;3602235;39;20060;-74
2021/07/08 07:27:30;;;;;;;6.15;2.90;;;;;;;21.45;39.87;101598.06;3589750;39;20040;-70
2021/07/08 07:30:03;;;;;;;4.15;2.47;;;;;;;21.49;39.75;101594.91;3593044;39;20040;-71
2021/07/08 07:32:31;;;;;;;4.75;2.50;;;;;;;21.53;40.23;101590.69;3598525;40;20043;-69
2021/07/08 07:34:59;;;;;;;5.18;2.63;;;;;;;21.61;39.50;101599.88;3598632;39;20036;-69
2021/07/08 07:37:28;;;;;;;4.82;2.85;;;;;;;21.67;39.28;101599.13;3599892;40;20090;-75
2021/07/08 07:39:56;;;;;;;5.50;2.47;;;;;;;21.73;39.29;101601.16;3590915;39;20025;-72
2021/07/08 07:42:25;;;;;;;4.90;2.88;;;;;;;21.78;39.04;101606.16;3589434;40;20322;-71
2021/07/08 07:44:54;;;;;;;4.53;2.60;;;;;;;21.86;38.91;101610.78;3589080;40;20433;-72
2021/07/08 07:47:24;;;;;;;4.07;2.65;;;;;;;21.89;39.30;101602.94;3589492;40;20051;-74
2021/07/08 07:49:52;;;;;;;4.65;2.70;;;;;;;21.95;39.02;101610.53;3589753;40;20682;-71
2021/07/08 07:52:20;;;;;;;4.32;2.47;;;;;;;22.01;39.08;101604.19;3589145;40;20236;-69
2021/07/08 07:54:48;;;;;;;5.55;2.83;;;;;;;22.06;39.25;101601.72;3589840;40;20043;-70
2021/07/08 07:57:16;;;;;;;5.30;2.53;;;;;;;22.11;38.92;101607.56;3589421;40;20048;-69
2021/07/08 07:59:44;;;;;;;3.80;2.38;;;;;;;22.15;38.85;101608.91;3589707;40;20071;-69
2021/07/08 08:02:14;;;;;;;5.43;2.60;;;;;;;22.21;38.35;101614.81;3589273;40;20040;-69
2021/07/08 08:04:45;;;;;;;4.82;2.60;;;;;;;22.22;38.49;101611.84;3590033;40;20068;-72
2021/07/08 08:09:59;;;;;;;4.03;2.30;;;;;;;22.25;38.41;101597.50;3591952;40;20404;-74
2021/07/08 08:12:28;;;;;;;5.80;2.90;;;;;;;22.27;38.41;101594.53;3592242;40;20040;-70
2021/07/08 08:14:57;;;;;;;5.30;2.38;;;;;;;22.32;38.98;101600.41;3589669;40;20378;-70
2021/07/08 08:17:26;;;;;;;4.72;2.83;;;;;;;22.36;38.55;101599.84;3598514;39;20399;-70
2021/07/08 08:20:13;;;;;;;6.30;2.95;;;;;;;22.39;38.57;101593.88;3606978;39;20036;-73
2021/07/08 08:22:41;;;;;;;5.32;2.55;;;;;;;22.43;38.59;101597.13;3610201;39;20666;-70
2021/07/08 08:25:12;;;;;;;3.35;2.30;;;;;;;22.49;38.66;101604.72;3599942;39;20060;-73
2021/07/08 08:27:40;;;;;;;4.32;2.33;;;;;;;22.52;38.81;101601.56;3610143;39;20039;-70
2021/07/08 08:30:12;;;;;;;4.72;2.30;;;;;;;22.60;38.31;101603.38;3589620;40;20048;-70
2021/07/08 08:32:42;;;;;;;4.85;2.30;;;;;;;22.64;38.38;101604.75;3590929;40;20597;-70
2021/07/08 08:35:11;;;;;;;2.95;2.20;;;;;;;22.67;38.12;101602.41;3590765;40;20385;-74
2021/07/08 08:37:41;;;;;;;3.22;2.03;;;;;;;22.70;38.42;101598.38;3591334;40;20033;-70
2021/07/08 08:40:14;;;;;;;4.22;2.20;;;;;;;22.76;38.18;101604.03;3598340;39;20056;-69
2021/07/08 08:42:43;;;;;;;4.57;2.20;;;;;;;22.80;38.26;101598.94;3600208;40;20040;-75
2021/07/08 08:45:17;;;;;;;5.00;2.20;;;;;;;22.88;38.43;101593.28;3599367;39;20039;-70
2021/07/08 08:47:54;;;;;;;3.92;2.33;;;;;;;22.98;37.71;101602.19;3591089;40;20399;-71
2021/07/08 08:50:24;;;;;;;3.70;2.13;;;;;;;23.02;38.10;101588.72;3594824;39;20032;-73
2021/07/08 08:52:52;;;;;;;4.70;2.00;;;;;;;23.09;37.79;101584.06;3591228;40;20037;-70
2021/07/08 08:55:21;;;;;;;5.03;2.30;;;;;;;23.15;37.23;101575.75;3590279;40;20047;-73
2021/07/08 08:57:49;;;;;;;5.18;2.22;;;;;;;23.22;37.19;101593.44;3591173;40;20296;-70
2021/07/08 09:00:47;;;;;;;3.10;2.08;;;;;;;23.27;36.84;101602.09;3590296;40;20056;-72
2021/07/08 09:03:19;;;;;;;4.00;2.05;;;;;;;23.33;37.23;101606.88;3581538;40;20059;-71
2021/07/08 09:05:56;;;;;;;4.88;2.03;;;;;;;23.38;37.00;101609.09;3610739;39;20039;-72
2021/07/08 09:08:25;;;;;;;4.35;2.20;;;;;;;23.45;36.87;101617.53;3611388;39;20031;-70
2021/07/08 09:11:12;;;;;;;4.13;2.15;;;;;;;23.51;36.52;101619.56;3610905;39;20047;-70
2021/07/08 09:13:51;;;;;;;2.88;1.90;;;;;;;23.57;36.70;101621.53;3591225;40;20070;-70
2021/07/08 09:16:21;;;;;;;4.00;2.20;;;;;;;23.59;36.56;101613.84;3589954;39;20661;-70
2021/07/08 09:19:03;;;;;;;3.85;2.10;;;;;;;23.63;36.16;101610.44;3590620;40;20369;-70
2021/07/08 09:21:33;;;;;;;3.30;1.88;;;;;;;23.63;36.36;101604.00;3581071;40;20037;-70
2021/07/08 09:24:04;;;;;;;3.83;2.10;;;;;;;23.66;36.35;101604.44;3593652;40;20037;-70
2021/07/08 09:26:33;;;;;;;4.05;2.40;;;;;;;23.67;36.37;101603.38;3594091;39;20074;-74
2021/07/08 09:29:06;;;;;;;3.95;2.10;;;;;;;23.72;35.87;101611.16;3589768;40;20033;-70
2021/07/08 09:31:36;;;;;;;4.13;2.25;;;;;;;23.72;35.93;101604.69;3589878;39;20045;-73
2021/07/08 09:34:23;;;;;;;6.85;2.45;;;;;;;23.73;35.50;101606.44;3589261;40;20029;-70
2021/07/08 09:37:04;;;;;;;5.30;2.13;;;;;;;23.76;35.61;101609.69;3580417;40;20048;-71
2021/07/08 09:39:35;;;;;;;3.30;2.10;;;;;;;23.75;35.63;101605.19;3590389;40;20077;-72
2021/07/08 09:42:04;;;;;;;4.65;2.10;;;;;;;23.76;35.85;101609.69;3589957;40;20061;-70
2021/07/08 09:44:34;;;;;;;4.88;2.10;;;;;;;23.78;35.40;101609.50;3589931;40;20069;-72
2021/07/08 09:47:02;;;;;;;3.47;2.33;;;;;;;23.78;35.65;101615.09;3590036;40;20052;-70
2021/07/08 09:49:32;;;;;;;3.25;2.03;;;;;;;23.78;35.19;101618.75;3590203;40;20035;-70
2021/07/08 09:52:10;;;;;;;4.32;2.10;;;;;;;23.77;34.88;101616.16;3580761;40;20036;-70
2021/07/08 09:54:50;;;;;;;3.35;2.42;;;;;;;23.77;34.99;101611.44;3590759;40;20028;-71
2021/07/08 09:57:40;;;;;;;2.90;1.85;;;;;;;23.77;34.28;101621.75;3597541;40;20039;-70
2021/07/08 10:00:32;;;;;;;3.30;1.90;;;;;;;23.74;34.75;101623.00;3589705;40;20353;-70
2021/07/08 10:03:01;;;;;;;3.17;1.90;;;;;;;23.71;35.00;101611.38;3580974;40;20037;-72
2021/07/08 10:05:34;;;;;;;3.33;2.20;;;;;;;23.74;34.86;101616.53;3589184;40;20044;-70
2021/07/08 10:08:07;;;;;;;3.95;2.10;;;;;;;23.74;34.61;101610.97;3589882;40;20127;-73
2021/07/08 10:10:35;;;;;;;3.95;2.42;;;;;;;23.68;35.00;101610.72;3598811;39;20047;-70
2021/07/08 10:13:06;;;;;;;3.45;2.00;;;;;;;23.71;35.17;101612.25;3600202;40;20024;-70
2021/07/08 10:15:37;;;;;;;3.90;2.05;;;;;;;23.70;35.24;101607.72;3602001;39;20403;-73
2021/07/08 10:18:07;;;;;;;3.55;2.15;;;;;;;23.67;35.17;101608.97;3605220;39;20043;-70
2021/07/08 10:20:38;;;;;;;3.78;2.03;;;;;;;23.68;35.83;101601.47;3595525;39;20046;-68
2021/07/08 10:23:07;;;;;;;4.20;2.40;;;;;;;23.63;35.33;101602.03;3620159;23;20055;-76
2021/07/08 10:25:35;;;;;;;3.67;2.15;;;;;;;23.63;35.58;101604.84;3586935;40;20088;-76
2021/07/08 10:28:05;;;;;;;4.88;2.15;;;;;;;23.62;35.47;101603.16;3592392;40;20037;-76
2021/07/08 10:30:33;;;;;;;3.13;2.00;;;;;;;23.60;34.98;101596.88;3592504;40;20389;-77
2021/07/08 10:33:19;;;;;;;4.03;2.17;;;;;;;23.59;34.97;101603.53;3593312;40;20377;-77
2021/07/08 10:35:50;;;;;;;4.18;1.95;;;;;;;23.58;34.97;101596.22;3602709;40;20051;-77
2021/07/08 10:38:38;;;;;;;4.32;2.10;;;;;;;23.57;35.30;101602.84;3603199;40;20086;-76
2021/07/08 10:41:42;;;;;;;4.03;1.98;;;;;;;23.56;35.44;101597.47;3592865;40;20053;-77
2021/07/08 10:44:47;;;;;;;5.43;2.25;;;;;;;23.54;35.18;101592.09;3592972;40;20033;-77
2021/07/08 10:47:42;;;;;;;3.05;1.80;;;;;;;23.50;35.31;101579.59;3578455;40;20060;-77
2021/07/08 10:50:42;;;;;;;4.20;2.10;;;;;;;23.47;35.34;101582.78;3575920;40;20390;-77
2021/07/08 10:53:21;;;;;;;2.88;1.92;;;;;;;23.55;35.28;101581.81;3561396;40;20041;-77
2021/07/08 10:55:52;;;;;;;4.10;1.90;;;;;;;23.54;35.34;101583.72;3561036;40;20116;-76
2021/07/08 10:58:41;;;;;;;2.97;1.90;;;;;;;23.55;35.30;101587.38;3561665;40;20085;-78
2021/07/08 11:01:11;;;;;;;2.83;1.60;;;;;;;23.54;35.10;101586.53;3560457;40;20058;-77
2021/07/08 11:03:45;;;;;;;2.95;1.60;;;;;;;23.57;34.70;101577.72;3561205;40;20034;-77
2021/07/08 11:06:23;;;;;;;3.40;1.77;;;;;;;23.56;35.10;101578.78;3561038;40;20030;-76
2021/07/08 11:09:06;;;;;;;3.33;1.58;;;;;;;23.57;34.67;101577.72;3561274;40;20042;-77
2021/07/08 11:11:59;;;;;;;3.28;1.60;;;;;;;23.55;34.79;101573.44;3552944;40;20042;-76
2021/07/08 11:14:36;;;;;;;3.03;1.50;;;;;;;23.55;34.71;101585.44;3561449;40;20434;-76
2021/07/08 11:17:21;;;;;;;3.35;1.67;;;;;;;23.57;34.71;101590.81;3556416;40;20034;-77
2021/07/08 11:19:58;;;;;;;3.70;1.70;;;;;;;23.58;34.51;101585.03;3561547;40;20030;-76
2021/07/08 11:22:35;;;;;;;3.03;1.50;;;;;;;23.61;34.60;101575.41;3513353;40;20035;-77
2021/07/08 11:25:09;;;;;;;3.75;1.70;;;;;;;23.63;34.24;101585.28;3559509;40;20037;-78
2021/07/08 11:27:43;;;;;;;3.17;1.65;;;;;;;23.67;34.62;101588.56;3580646;40;20049;-77
2021/07/08 11:30:38;;;;;;;3.63;2.15;;;;;;;23.62;34.32;101583.59;3592109;40;20069;-77
2021/07/08 11:33:07;;;;;;;2.20;1.40;;;;;;;23.67;34.39;101571.81;3593285;40;20479;-78
2021/07/08 11:35:38;;;;;;;3.38;1.70;;;;;;;23.73;34.50;101579.38;3571394;40;20052;-76
2021/07/08 11:38:13;;;;;;;3.45;1.55;;;;;;;23.76;34.36;101567.78;3592297;40;20041;-78
2021/07/08 11:40:48;;;;;;;3.17;1.55;;;;;;;23.82;34.15;101564.19;3592067;40;20130;-78
2021/07/08 11:43:21;;;;;;;3.97;1.60;;;;;;;23.86;34.04;101575.84;3593385;40;20072;-78
2021/07/08 11:45:51;;;;;;;2.92;1.60;;;;;;;23.89;34.27;101564.22;3592939;39;20032;-77